Sovereign — 9HUE9 — position and weather

sailwx.info

Track history (hours):
 
Tides and Currents Weather Stations Pressure Air Temp Water Temp Dewpoint Dewpoint Depression Visibility Wind Speed Wind Dir Waves Ship Positions

Sovereign

Last reported at 2015-Jan-31 23:33 UTC. Time now 2015-Feb-01 00:31 UTC.
Position S 24°01' W 046°20'.

Length 268 m; draft 7.8 m.

Type: Passenger vessel. MMSI: 249539000.

Date/timePositionNaut miles runAvg speedWind from/ knotsBaromVisibWave heightAir tempDewpointWater temp
2015-Jan-31 23:33S 24°01' W 046°20'17 7.3
2015-Jan-31 21:16S 24°03' W 046°02'1115.1
2015-Jan-31 20:33S 24°04' W 046°14'7 6.5
2015-Jan-31 19:33S 23°58' W 046°17'1 0.7
2015-Jan-31 18:29S 23°58' W 046°18'0 0.0
2015-Jan-31 17:29S 23°58' W 046°18'0 0.0
2015-Jan-31 16:29S 23°58' W 046°18'0 0.0
2015-Jan-31 15:29S 23°58' W 046°18'0 0.0
2015-Jan-31 14:29S 23°58' W 046°18'0 0.0
2015-Jan-31 13:29S 23°58' W 046°18'0 0.0
2015-Jan-31 12:29S 23°58' W 046°18'0 0.0
2015-Jan-31 11:29S 23°58' W 046°18'1 1.4
2015-Jan-31 10:33S 23°59' W 046°17'7 6.9
2015-Jan-31 09:33S 24°04' W 046°12'  
2015-Jan-28 19:33S 13°13' W 038°34'1514.6
2015-Jan-28 18:33S 12°58' W 038°32'1 1.1
2015-Jan-28 17:32S 12°58' W 038°31'0 0.0
2015-Jan-28 16:32S 12°58' W 038°31'0 0.0
2015-Jan-28 15:32S 12°58' W 038°31'0 0.0
2015-Jan-28 14:32S 12°58' W 038°31'0 0.0
2015-Jan-28 13:32S 12°58' W 038°31'0 0.0
2015-Jan-28 12:32S 12°58' W 038°31'0 0.0
2015-Jan-28 11:32S 12°58' W 038°31'0 0.0
2015-Jan-28 10:32S 12°58' W 038°31'0 0.0
2015-Jan-28 09:32S 12°58' W 038°31'0 0.0
2015-Jan-28 08:32S 12°58' W 038°31'0 0.0
2015-Jan-28 07:32S 12°58' W 038°31'0 0.0
2015-Jan-28 06:32S 12°58' W 038°31'0 0.0
2015-Jan-28 05:29S 12°58' W 038°31'0 0.0
2015-Jan-28 04:29S 12°58' W 038°31'0 0.0
2015-Jan-28 03:32S 12°58' W 038°31'0 0.0
2015-Jan-28 02:32S 12°58' W 038°31'0 0.0
2015-Jan-28 01:32S 12°58' W 038°31'0 0.0
2015-Jan-28 00:32S 12°58' W 038°31'0 0.0
2015-Jan-27 23:32S 12°58' W 038°31'0 0.0
2015-Jan-27 22:32S 12°58' W 038°31'0 0.0
2015-Jan-27 21:32S 12°58' W 038°31'0 0.0
2015-Jan-27 20:32S 12°58' W 038°31'0 0.0
2015-Jan-27 19:32S 12°58' W 038°31'0 0.0
2015-Jan-27 18:32S 12°58' W 038°31'0 0.0
2015-Jan-27 17:32S 12°58' W 038°31'1 1.5
2015-Jan-27 16:33S 12°58' W 038°32'1211.7
2015-Jan-27 15:31S 13°10' W 038°34'  
2015-Jan-24 21:06S 24°03' W 046°06'1016.1
2015-Jan-24 20:27S 24°04' W 046°17'6 6.9
2015-Jan-24 19:33S 23°58' W 046°18'0 0.4
2015-Jan-24 18:33S 23°58' W 046°18'0 0.0
2015-Jan-24 17:33S 23°58' W 046°18'0 0.0
2015-Jan-24 16:33S 23°58' W 046°18'0 0.0
2015-Jan-24 15:33S 23°58' W 046°18'0 0.0
2015-Jan-24 14:30S 23°58' W 046°18'0 0.0
2015-Jan-24 13:09S 23°58' W 046°18'0 0.0
2015-Jan-24 12:21S 23°58' W 046°18'0 0.0
2015-Jan-24 11:33S 23°58' W 046°18'1 1.0
2015-Jan-24 10:33S 23°59' W 046°17'7 6.5
2015-Jan-24 09:33S 24°04' W 046°13'  
Track history (hours):
 
Tides and Currents Weather Stations Pressure Air Temp Water Temp Dewpoint Dewpoint Depression Visibility Wind Speed Wind Dir Waves Ship Positions

Sovereign

Last reported at 2015-Jan-31 23:33 UTC. Time now 2015-Feb-01 00:31 UTC.
Position S 24°01' W 046°20'.

Length 268 m; draft 7.8 m.

Type: Passenger vessel. MMSI: 249539000.

Date/timePositionNaut miles runAvg speedWind from/ knotsBaromVisibWave heightAir tempDewpointWater temp
2015-Jan-31 23:33S 24°01' W 046°20'17 7.3
2015-Jan-31 21:16S 24°03' W 046°02'1115.1
2015-Jan-31 20:33S 24°04' W 046°14'7 6.5
2015-Jan-31 19:33S 23°58' W 046°17'1 0.7
2015-Jan-31 18:29S 23°58' W 046°18'0 0.0
2015-Jan-31 17:29S 23°58' W 046°18'0 0.0
2015-Jan-31 16:29S 23°58' W 046°18'0 0.0
2015-Jan-31 15:29S 23°58' W 046°18'0 0.0
2015-Jan-31 14:29S 23°58' W 046°18'0 0.0
2015-Jan-31 13:29S 23°58' W 046°18'0 0.0
2015-Jan-31 12:29S 23°58' W 046°18'0 0.0
2015-Jan-31 11:29S 23°58' W 046°18'1 1.4
2015-Jan-31 10:33S 23°59' W 046°17'7 6.9
2015-Jan-31 09:33S 24°04' W 046°12'  
2015-Jan-28 19:33S 13°13' W 038°34'1514.6
2015-Jan-28 18:33S 12°58' W 038°32'1 1.1
2015-Jan-28 17:32S 12°58' W 038°31'0 0.0
2015-Jan-28 16:32S 12°58' W 038°31'0 0.0
2015-Jan-28 15:32S 12°58' W 038°31'0 0.0
2015-Jan-28 14:32S 12°58' W 038°31'0 0.0
2015-Jan-28 13:32S 12°58' W 038°31'0 0.0
2015-Jan-28 12:32S 12°58' W 038°31'0 0.0
2015-Jan-28 11:32S 12°58' W 038°31'0 0.0
2015-Jan-28 10:32S 12°58' W 038°31'0 0.0
2015-Jan-28 09:32S 12°58' W 038°31'0 0.0
2015-Jan-28 08:32S 12°58' W 038°31'0 0.0
2015-Jan-28 07:32S 12°58' W 038°31'0 0.0
2015-Jan-28 06:32S 12°58' W 038°31'0 0.0
2015-Jan-28 05:29S 12°58' W 038°31'0 0.0
2015-Jan-28 04:29S 12°58' W 038°31'0 0.0
2015-Jan-28 03:32S 12°58' W 038°31'0 0.0
2015-Jan-28 02:32S 12°58' W 038°31'0 0.0
2015-Jan-28 01:32S 12°58' W 038°31'0 0.0
2015-Jan-28 00:32S 12°58' W 038°31'0 0.0
2015-Jan-27 23:32S 12°58' W 038°31'0 0.0
2015-Jan-27 22:32S 12°58' W 038°31'0 0.0
2015-Jan-27 21:32S 12°58' W 038°31'0 0.0
2015-Jan-27 20:32S 12°58' W 038°31'0 0.0
2015-Jan-27 19:32S 12°58' W 038°31'0 0.0
2015-Jan-27 18:32S 12°58' W 038°31'0 0.0
2015-Jan-27 17:32S 12°58' W 038°31'1 1.5
2015-Jan-27 16:33S 12°58' W 038°32'1211.7
2015-Jan-27 15:31S 13°10' W 038°34'  
2015-Jan-24 21:06S 24°03' W 046°06'1016.1
2015-Jan-24 20:27S 24°04' W 046°17'6 6.9
2015-Jan-24 19:33S 23°58' W 046°18'0 0.4
2015-Jan-24 18:33S 23°58' W 046°18'0 0.0
2015-Jan-24 17:33S 23°58' W 046°18'0 0.0
2015-Jan-24 16:33S 23°58' W 046°18'0 0.0
2015-Jan-24 15:33S 23°58' W 046°18'0 0.0
2015-Jan-24 14:30S 23°58' W 046°18'0 0.0
2015-Jan-24 13:09S 23°58' W 046°18'0 0.0
2015-Jan-24 12:21S 23°58' W 046°18'0 0.0
2015-Jan-24 11:33S 23°58' W 046°18'1 1.0
2015-Jan-24 10:33S 23°59' W 046°17'7 6.5
2015-Jan-24 09:33S 24°04' W 046°13'  

Dump ship's entire track history